sensor_id;sensor_type;location;lat;lon;timestamp;P1;durP1;ratioP1;P2;durP2;ratioP2
40076;SDS011;25777;47.824;18.982;2023-08-06T00:00:25;14.63;;;9.30;;
40076;SDS011;25777;47.824;18.982;2023-08-06T00:02:53;15.13;;;8.50;;
40076;SDS011;25777;47.824;18.982;2023-08-06T00:05:19;14.98;;;9.00;;
40076;SDS011;25777;47.824;18.982;2023-08-06T00:07:46;14.60;;;8.70;;
40076;SDS011;25777;47.824;18.982;2023-08-06T00:10:13;13.80;;;7.70;;
40076;SDS011;25777;47.824;18.982;2023-08-06T00:12:39;14.27;;;8.82;;
40076;SDS011;25777;47.824;18.982;2023-08-06T00:15:05;13.70;;;8.73;;
40076;SDS011;25777;47.824;18.982;2023-08-06T00:17:31;14.18;;;7.97;;
40076;SDS011;25777;47.824;18.982;2023-08-06T00:19:57;13.57;;;8.45;;
40076;SDS011;25777;47.824;18.982;2023-08-06T00:22:23;12.63;;;7.60;;
40076;SDS011;25777;47.824;18.982;2023-08-06T00:24:49;12.48;;;8.20;;
40076;SDS011;25777;47.824;18.982;2023-08-06T00:27:15;14.88;;;8.43;;
40076;SDS011;25777;47.824;18.982;2023-08-06T00:29:41;14.98;;;8.93;;
40076;SDS011;25777;47.824;18.982;2023-08-06T00:32:06;15.68;;;8.63;;
40076;SDS011;25777;47.824;18.982;2023-08-06T00:34:32;12.43;;;7.75;;
40076;SDS011;25777;47.824;18.982;2023-08-06T00:37:00;13.80;;;8.40;;
40076;SDS011;25777;47.824;18.982;2023-08-06T00:39:26;14.00;;;8.07;;
40076;SDS011;25777;47.824;18.982;2023-08-06T00:41:52;12.55;;;7.88;;
40076;SDS011;25777;47.824;18.982;2023-08-06T00:44:19;11.98;;;7.93;;
40076;SDS011;25777;47.824;18.982;2023-08-06T00:46:45;13.48;;;8.23;;
40076;SDS011;25777;47.824;18.982;2023-08-06T00:49:11;14.27;;;7.88;;
40076;SDS011;25777;47.824;18.982;2023-08-06T00:51:37;14.27;;;8.73;;
40076;SDS011;25777;47.824;18.982;2023-08-06T00:54:04;15.13;;;9.55;;
40076;SDS011;25777;47.824;18.982;2023-08-06T00:59:01;15.80;;;9.02;;
40076;SDS011;25777;47.824;18.982;2023-08-06T01:01:28;18.63;;;10.15;;
40076;SDS011;25777;47.824;18.982;2023-08-06T01:03:54;16.45;;;9.50;;
40076;SDS011;25777;47.824;18.982;2023-08-06T01:06:22;15.95;;;9.02;;
40076;SDS011;25777;47.824;18.982;2023-08-06T01:09:01;15.65;;;8.02;;
40076;SDS011;25777;47.824;18.982;2023-08-06T01:11:47;14.32;;;7.75;;
40076;SDS011;25777;47.824;18.982;2023-08-06T01:17:06;13.80;;;7.50;;
40076;SDS011;25777;47.824;18.982;2023-08-06T01:19:39;14.27;;;6.70;;
40076;SDS011;25777;47.824;18.982;2023-08-06T01:22:04;10.70;;;5.95;;
40076;SDS011;25777;47.824;18.982;2023-08-06T01:24:33;11.68;;;6.28;;
40076;SDS011;25777;47.824;18.982;2023-08-06T01:30:07;10.43;;;5.05;;
40076;SDS011;25777;47.824;18.982;2023-08-06T01:32:58;11.48;;;4.78;;
40076;SDS011;25777;47.824;18.982;2023-08-06T01:38:09;8.20;;;4.78;;
40076;SDS011;25777;47.824;18.982;2023-08-06T01:40:36;6.95;;;4.50;;
40076;SDS011;25777;47.824;18.982;2023-08-06T01:43:16;7.55;;;4.38;;
40076;SDS011;25777;47.824;18.982;2023-08-06T01:45:41;8.48;;;4.32;;
40076;SDS011;25777;47.824;18.982;2023-08-06T01:48:07;8.93;;;4.38;;
40076;SDS011;25777;47.824;18.982;2023-08-06T01:50:33;10.70;;;4.35;;
40076;SDS011;25777;47.824;18.982;2023-08-06T01:53:00;8.15;;;4.43;;
40076;SDS011;25777;47.824;18.982;2023-08-06T01:55:26;7.95;;;4.40;;
40076;SDS011;25777;47.824;18.982;2023-08-06T02:00:31;10.50;;;5.25;;
40076;SDS011;25777;47.824;18.982;2023-08-06T02:03:06;10.98;;;5.30;;
40076;SDS011;25777;47.824;18.982;2023-08-06T02:05:44;9.70;;;5.43;;
40076;SDS011;25777;47.824;18.982;2023-08-06T02:08:11;8.43;;;4.85;;
40076;SDS011;25777;47.824;18.982;2023-08-06T02:10:44;12.93;;;5.40;;
40076;SDS011;25777;47.824;18.982;2023-08-06T02:13:10;7.63;;;4.90;;
40076;SDS011;25777;47.824;18.982;2023-08-06T02:15:41;9.27;;;4.85;;
40076;SDS011;25777;47.824;18.982;2023-08-06T02:20:43;12.75;;;5.25;;
40076;SDS011;25777;47.824;18.982;2023-08-06T02:23:20;8.20;;;4.40;;
40076;SDS011;25777;47.824;18.982;2023-08-06T02:25:46;7.45;;;4.30;;
40076;SDS011;25777;47.824;18.982;2023-08-06T02:28:13;10.57;;;5.03;;
40076;SDS011;25777;47.824;18.982;2023-08-06T02:30:39;9.60;;;4.95;;
40076;SDS011;25777;47.824;18.982;2023-08-06T02:33:15;6.88;;;3.90;;
40076;SDS011;25777;47.824;18.982;2023-08-06T02:35:47;7.47;;;4.25;;
40076;SDS011;25777;47.824;18.982;2023-08-06T02:38:20;8.57;;;4.05;;
40076;SDS011;25777;47.824;18.982;2023-08-06T02:40:46;7.57;;;3.95;;
40076;SDS011;25777;47.824;18.982;2023-08-06T02:43:15;8.20;;;4.30;;
40076;SDS011;25777;47.824;18.982;2023-08-06T02:45:42;10.80;;;4.55;;
40076;SDS011;25777;47.824;18.982;2023-08-06T02:48:10;7.10;;;4.00;;
40076;SDS011;25777;47.824;18.982;2023-08-06T02:50:48;8.38;;;3.63;;
40076;SDS011;25777;47.824;18.982;2023-08-06T02:53:15;8.65;;;4.13;;
40076;SDS011;25777;47.824;18.982;2023-08-06T02:55:48;7.28;;;4.07;;
40076;SDS011;25777;47.824;18.982;2023-08-06T02:58:15;6.20;;;3.88;;
40076;SDS011;25777;47.824;18.982;2023-08-06T03:00:43;6.47;;;3.63;;
40076;SDS011;25777;47.824;18.982;2023-08-06T03:05:39;7.30;;;4.15;;
40076;SDS011;25777;47.824;18.982;2023-08-06T03:08:05;9.20;;;4.22;;
40076;SDS011;25777;47.824;18.982;2023-08-06T03:10:31;6.45;;;3.65;;
40076;SDS011;25777;47.824;18.982;2023-08-06T03:12:58;6.07;;;4.00;;
40076;SDS011;25777;47.824;18.982;2023-08-06T03:15:26;9.77;;;4.22;;
40076;SDS011;25777;47.824;18.982;2023-08-06T03:17:51;7.72;;;4.10;;
40076;SDS011;25777;47.824;18.982;2023-08-06T03:20:20;11.50;;;3.85;;
40076;SDS011;25777;47.824;18.982;2023-08-06T03:22:46;8.13;;;4.20;;
40076;SDS011;25777;47.824;18.982;2023-08-06T03:25:14;7.95;;;3.85;;
40076;SDS011;25777;47.824;18.982;2023-08-06T03:27:42;5.97;;;3.80;;
40076;SDS011;25777;47.824;18.982;2023-08-06T03:30:09;6.68;;;3.53;;
40076;SDS011;25777;47.824;18.982;2023-08-06T03:32:35;6.93;;;3.50;;
40076;SDS011;25777;47.824;18.982;2023-08-06T03:35:02;7.43;;;3.80;;
40076;SDS011;25777;47.824;18.982;2023-08-06T03:37:28;9.07;;;3.28;;
40076;SDS011;25777;47.824;18.982;2023-08-06T03:39:56;6.95;;;3.53;;
40076;SDS011;25777;47.824;18.982;2023-08-06T03:42:23;5.78;;;2.70;;
40076;SDS011;25777;47.824;18.982;2023-08-06T03:44:50;5.22;;;3.40;;
40076;SDS011;25777;47.824;18.982;2023-08-06T03:47:18;4.90;;;2.97;;
40076;SDS011;25777;47.824;18.982;2023-08-06T04:01:28;5.10;;;3.25;;
40076;SDS011;25777;47.824;18.982;2023-08-06T04:03:53;5.88;;;3.90;;
40076;SDS011;25777;47.824;18.982;2023-08-06T04:06:19;6.47;;;4.07;;
40076;SDS011;25777;47.824;18.982;2023-08-06T04:08:45;6.80;;;3.92;;
40076;SDS011;25777;47.824;18.982;2023-08-06T04:11:13;7.20;;;3.85;;
40076;SDS011;25777;47.824;18.982;2023-08-06T04:13:42;6.32;;;3.78;;
40076;SDS011;25777;47.824;18.982;2023-08-06T04:16:09;7.68;;;3.80;;
40076;SDS011;25777;47.824;18.982;2023-08-06T04:18:35;7.43;;;4.25;;
40076;SDS011;25777;47.824;18.982;2023-08-06T04:21:01;5.95;;;3.70;;
40076;SDS011;25777;47.824;18.982;2023-08-06T04:23:35;17.00;;;4.30;;
40076;SDS011;25777;47.824;18.982;2023-08-06T04:26:01;6.80;;;3.67;;
40076;SDS011;25777;47.824;18.982;2023-08-06T04:28:27;6.25;;;3.83;;
40076;SDS011;25777;47.824;18.982;2023-08-06T04:30:53;6.30;;;3.70;;
40076;SDS011;25777;47.824;18.982;2023-08-06T04:33:22;6.97;;;3.58;;
40076;SDS011;25777;47.824;18.982;2023-08-06T04:35:53;6.40;;;2.95;;
40076;SDS011;25777;47.824;18.982;2023-08-06T04:38:20;4.80;;;2.38;;
40076;SDS011;25777;47.824;18.982;2023-08-06T04:40:48;5.18;;;2.40;;
40076;SDS011;25777;47.824;18.982;2023-08-06T04:43:14;3.03;;;1.75;;
40076;SDS011;25777;47.824;18.982;2023-08-06T04:45:50;3.78;;;1.85;;
40076;SDS011;25777;47.824;18.982;2023-08-06T04:48:18;2.10;;;1.42;;
40076;SDS011;25777;47.824;18.982;2023-08-06T04:50:44;3.95;;;1.40;;
40076;SDS011;25777;47.824;18.982;2023-08-06T04:53:12;3.42;;;1.60;;
40076;SDS011;25777;47.824;18.982;2023-08-06T04:55:39;4.25;;;1.10;;
40076;SDS011;25777;47.824;18.982;2023-08-06T04:58:06;3.25;;;1.33;;
40076;SDS011;25777;47.824;18.982;2023-08-06T05:00:35;1.52;;;0.95;;
40076;SDS011;25777;47.824;18.982;2023-08-06T05:03:01;1.92;;;0.95;;
40076;SDS011;25777;47.824;18.982;2023-08-06T05:05:28;1.48;;;0.85;;
40076;SDS011;25777;47.824;18.982;2023-08-06T05:07:54;2.78;;;1.00;;
40076;SDS011;25777;47.824;18.982;2023-08-06T05:10:21;2.05;;;1.20;;
40076;SDS011;25777;47.824;18.982;2023-08-06T05:12:50;1.15;;;0.80;;
40076;SDS011;25777;47.824;18.982;2023-08-06T05:15:16;1.75;;;1.00;;
40076;SDS011;25777;47.824;18.982;2023-08-06T05:17:42;1.90;;;1.10;;
40076;SDS011;25777;47.824;18.982;2023-08-06T05:20:08;1.33;;;0.98;;
40076;SDS011;25777;47.824;18.982;2023-08-06T05:22:34;1.65;;;1.27;;
40076;SDS011;25777;47.824;18.982;2023-08-06T05:25:00;1.58;;;1.10;;
40076;SDS011;25777;47.824;18.982;2023-08-06T05:27:26;1.15;;;0.80;;
40076;SDS011;25777;47.824;18.982;2023-08-06T05:29:54;1.42;;;1.00;;
40076;SDS011;25777;47.824;18.982;2023-08-06T05:32:23;1.50;;;1.00;;
40076;SDS011;25777;47.824;18.982;2023-08-06T05:34:50;2.97;;;0.73;;
40076;SDS011;25777;47.824;18.982;2023-08-06T05:37:23;0.60;;;0.60;;
40076;SDS011;25777;47.824;18.982;2023-08-06T05:42:22;1.83;;;0.73;;
40076;SDS011;25777;47.824;18.982;2023-08-06T05:47:25;1.05;;;0.70;;
40076;SDS011;25777;47.824;18.982;2023-08-06T05:49:51;1.80;;;0.70;;
40076;SDS011;25777;47.824;18.982;2023-08-06T05:52:17;0.80;;;0.60;;
40076;SDS011;25777;47.824;18.982;2023-08-06T05:54:46;1.23;;;0.77;;
40076;SDS011;25777;47.824;18.982;2023-08-06T05:57:13;0.80;;;0.80;;
40076;SDS011;25777;47.824;18.982;2023-08-06T05:59:40;1.00;;;0.90;;
40076;SDS011;25777;47.824;18.982;2023-08-06T06:02:06;3.17;;;1.20;;
40076;SDS011;25777;47.824;18.982;2023-08-06T06:07:02;2.65;;;1.08;;
40076;SDS011;25777;47.824;18.982;2023-08-06T06:09:29;2.70;;;1.35;;
40076;SDS011;25777;47.824;18.982;2023-08-06T06:11:56;3.05;;;1.20;;
40076;SDS011;25777;47.824;18.982;2023-08-06T06:16:54;2.33;;;1.73;;
40076;SDS011;25777;47.824;18.982;2023-08-06T06:21:51;1.50;;;1.23;;
40076;SDS011;25777;47.824;18.982;2023-08-06T06:24:17;2.97;;;1.05;;
40076;SDS011;25777;47.824;18.982;2023-08-06T06:26:43;2.38;;;1.30;;
40076;SDS011;25777;47.824;18.982;2023-08-06T06:29:08;1.55;;;1.27;;
40076;SDS011;25777;47.824;18.982;2023-08-06T06:34:11;2.58;;;1.70;;
40076;SDS011;25777;47.824;18.982;2023-08-06T06:36:37;2.20;;;1.90;;
40076;SDS011;25777;47.824;18.982;2023-08-06T06:39:04;1.80;;;1.70;;
40076;SDS011;25777;47.824;18.982;2023-08-06T06:41:29;2.03;;;1.75;;
40076;SDS011;25777;47.824;18.982;2023-08-06T06:43:58;2.70;;;1.90;;
40076;SDS011;25777;47.824;18.982;2023-08-06T06:46:24;1.85;;;1.70;;
40076;SDS011;25777;47.824;18.982;2023-08-06T06:48:49;3.47;;;1.58;;
40076;SDS011;25777;47.824;18.982;2023-08-06T06:51:15;1.40;;;1.30;;
40076;SDS011;25777;47.824;18.982;2023-08-06T06:53:41;1.50;;;1.40;;
40076;SDS011;25777;47.824;18.982;2023-08-06T06:56:07;1.63;;;1.40;;
40076;SDS011;25777;47.824;18.982;2023-08-06T07:01:15;1.45;;;1.30;;
40076;SDS011;25777;47.824;18.982;2023-08-06T07:03:41;1.63;;;1.40;;
40076;SDS011;25777;47.824;18.982;2023-08-06T07:06:07;1.30;;;1.20;;
40076;SDS011;25777;47.824;18.982;2023-08-06T07:08:34;2.03;;;0.90;;
40076;SDS011;25777;47.824;18.982;2023-08-06T07:11:02;1.20;;;1.05;;
40076;SDS011;25777;47.824;18.982;2023-08-06T07:13:29;1.10;;;1.00;;
40076;SDS011;25777;47.824;18.982;2023-08-06T07:15:55;0.60;;;0.60;;
40076;SDS011;25777;47.824;18.982;2023-08-06T07:18:23;1.45;;;0.70;;
40076;SDS011;25777;47.824;18.982;2023-08-06T07:20:49;0.50;;;0.50;;
40076;SDS011;25777;47.824;18.982;2023-08-06T07:28:24;0.65;;;0.30;;
40076;SDS011;25777;47.824;18.982;2023-08-06T07:30:52;0.55;;;0.28;;
40076;SDS011;25777;47.824;18.982;2023-08-06T07:33:23;1.08;;;0.40;;
40076;SDS011;25777;47.824;18.982;2023-08-06T07:35:49;0.45;;;0.30;;
40076;SDS011;25777;47.824;18.982;2023-08-06T07:40:53;0.10;;;0.10;;
40076;SDS011;25777;47.824;18.982;2023-08-06T07:48:27;0.10;;;0.10;;
40076;SDS011;25777;47.824;18.982;2023-08-06T07:50:54;1.10;;;0.10;;
40076;SDS011;25777;47.824;18.982;2023-08-06T07:53:22;0.10;;;0.10;;
40076;SDS011;25777;47.824;18.982;2023-08-06T07:55:50;0.10;;;0.10;;
40076;SDS011;25777;47.824;18.982;2023-08-06T07:58:17;2.08;;;0.10;;
40076;SDS011;25777;47.824;18.982;2023-08-06T08:00:44;0.10;;;0.10;;
40076;SDS011;25777;47.824;18.982;2023-08-06T08:03:14;0.30;;;0.05;;
40076;SDS011;25777;47.824;18.982;2023-08-06T08:08:09;0.10;;;0.10;;
40076;SDS011;25777;47.824;18.982;2023-08-06T08:10:35;0.17;;;0.10;;
40076;SDS011;25777;47.824;18.982;2023-08-06T08:13:03;0.20;;;0.20;;
40076;SDS011;25777;47.824;18.982;2023-08-06T08:15:29;0.85;;;0.20;;
40076;SDS011;25777;47.824;18.982;2023-08-06T08:17:56;1.77;;;0.00;;
40076;SDS011;25777;47.824;18.982;2023-08-06T08:20:22;2.47;;;0.10;;
40076;SDS011;25777;47.824;18.982;2023-08-06T08:22:49;0.35;;;0.10;;
40076;SDS011;25777;47.824;18.982;2023-08-06T08:25:22;1.85;;;0.10;;
40076;SDS011;25777;47.824;18.982;2023-08-06T08:30:13;1.65;;;0.10;;
40076;SDS011;25777;47.824;18.982;2023-08-06T08:32:39;3.95;;;0.10;;
40076;SDS011;25777;47.824;18.982;2023-08-06T08:35:05;0.00;;;0.00;;
40076;SDS011;25777;47.824;18.982;2023-08-06T08:37:31;0.20;;;0.10;;
40076;SDS011;25777;47.824;18.982;2023-08-06T08:39:57;0.95;;;0.10;;
40076;SDS011;25777;47.824;18.982;2023-08-06T08:44:56;0.10;;;0.00;;
40076;SDS011;25777;47.824;18.982;2023-08-06T08:50:20;0.20;;;0.17;;
40076;SDS011;25777;47.824;18.982;2023-08-06T08:52:47;0.75;;;0.10;;
40076;SDS011;25777;47.824;18.982;2023-08-06T08:55:15;0.85;;;0.10;;
40076;SDS011;25777;47.824;18.982;2023-08-06T08:57:43;0.52;;;0.10;;
40076;SDS011;25777;47.824;18.982;2023-08-06T09:00:08;1.10;;;0.13;;
40076;SDS011;25777;47.824;18.982;2023-08-06T09:02:35;1.45;;;0.10;;
40076;SDS011;25777;47.824;18.982;2023-08-06T09:05:05;0.10;;;0.10;;
40076;SDS011;25777;47.824;18.982;2023-08-06T09:10:05;0.00;;;0.00;;
40076;SDS011;25777;47.824;18.982;2023-08-06T09:15:03;0.20;;;0.10;;
40076;SDS011;25777;47.824;18.982;2023-08-06T09:17:31;1.35;;;0.00;;
40076;SDS011;25777;47.824;18.982;2023-08-06T09:19:57;0.88;;;0.20;;
40076;SDS011;25777;47.824;18.982;2023-08-06T09:22:22;0.10;;;0.10;;
40076;SDS011;25777;47.824;18.982;2023-08-06T09:24:51;0.10;;;0.10;;
40076;SDS011;25777;47.824;18.982;2023-08-06T09:27:18;0.82;;;0.10;;
40076;SDS011;25777;47.824;18.982;2023-08-06T09:29:44;0.10;;;0.10;;
40076;SDS011;25777;47.824;18.982;2023-08-06T09:32:13;0.10;;;0.10;;
40076;SDS011;25777;47.824;18.982;2023-08-06T09:34:41;1.00;;;0.10;;
40076;SDS011;25777;47.824;18.982;2023-08-06T09:37:09;0.52;;;0.10;;
40076;SDS011;25777;47.824;18.982;2023-08-06T09:39:38;0.47;;;0.20;;
40076;SDS011;25777;47.824;18.982;2023-08-06T09:42:08;0.47;;;0.20;;
40076;SDS011;25777;47.824;18.982;2023-08-06T09:44:35;0.10;;;0.10;;
40076;SDS011;25777;47.824;18.982;2023-08-06T09:47:02;0.25;;;0.20;;
40076;SDS011;25777;47.824;18.982;2023-08-06T09:51:57;0.85;;;0.20;;
40076;SDS011;25777;47.824;18.982;2023-08-06T09:56:55;0.20;;;0.10;;
40076;SDS011;25777;47.824;18.982;2023-08-06T09:59:25;0.10;;;0.10;;
40076;SDS011;25777;47.824;18.982;2023-08-06T10:01:51;0.65;;;0.30;;
40076;SDS011;25777;47.824;18.982;2023-08-06T10:04:22;0.32;;;0.10;;
40076;SDS011;25777;47.824;18.982;2023-08-06T10:06:50;0.75;;;0.10;;
40076;SDS011;25777;47.824;18.982;2023-08-06T10:09:23;0.10;;;0.10;;
40076;SDS011;25777;47.824;18.982;2023-08-06T10:19:42;0.50;;;0.20;;
40076;SDS011;25777;47.824;18.982;2023-08-06T10:22:13;0.95;;;0.10;;
40076;SDS011;25777;47.824;18.982;2023-08-06T10:30:47;0.20;;;0.20;;
40076;SDS011;25777;47.824;18.982;2023-08-06T10:33:13;0.22;;;0.20;;
40076;SDS011;25777;47.824;18.982;2023-08-06T10:38:22;0.40;;;0.20;;
40076;SDS011;25777;47.824;18.982;2023-08-06T10:43:32;0.55;;;0.32;;
40076;SDS011;25777;47.824;18.982;2023-08-06T10:48:56;0.30;;;0.30;;
40076;SDS011;25777;47.824;18.982;2023-08-06T10:53:54;0.35;;;0.30;;
40076;SDS011;25777;47.824;18.982;2023-08-06T10:58:53;0.30;;;0.30;;
40076;SDS011;25777;47.824;18.982;2023-08-06T11:01:23;2.63;;;0.60;;
40076;SDS011;25777;47.824;18.982;2023-08-06T11:03:56;1.85;;;0.68;;
40076;SDS011;25777;47.824;18.982;2023-08-06T11:06:27;1.27;;;0.80;;
40076;SDS011;25777;47.824;18.982;2023-08-06T11:08:54;2.25;;;0.60;;
40076;SDS011;25777;47.824;18.982;2023-08-06T11:11:20;0.65;;;0.50;;
40076;SDS011;25777;47.824;18.982;2023-08-06T11:13:49;0.50;;;0.40;;
40076;SDS011;25777;47.824;18.982;2023-08-06T11:16:22;1.77;;;0.60;;
40076;SDS011;25777;47.824;18.982;2023-08-06T11:18:57;3.90;;;0.93;;
40076;SDS011;25777;47.824;18.982;2023-08-06T11:21:29;1.65;;;0.80;;
40076;SDS011;25777;47.824;18.982;2023-08-06T11:23:57;0.45;;;0.30;;
40076;SDS011;25777;47.824;18.982;2023-08-06T11:26:28;0.65;;;0.30;;
40076;SDS011;25777;47.824;18.982;2023-08-06T11:28:57;0.68;;;0.25;;
40076;SDS011;25777;47.824;18.982;2023-08-06T11:36:40;0.90;;;0.20;;
40076;SDS011;25777;47.824;18.982;2023-08-06T11:39:12;0.82;;;0.35;;
40076;SDS011;25777;47.824;18.982;2023-08-06T11:41:39;1.00;;;0.40;;
40076;SDS011;25777;47.824;18.982;2023-08-06T11:44:10;0.20;;;0.20;;
40076;SDS011;25777;47.824;18.982;2023-08-06T11:46:50;0.63;;;0.22;;
40076;SDS011;25777;47.824;18.982;2023-08-06T11:52:25;0.52;;;0.20;;
40076;SDS011;25777;47.824;18.982;2023-08-06T11:57:45;0.60;;;0.33;;
40076;SDS011;25777;47.824;18.982;2023-08-06T12:00:12;0.65;;;0.43;;
40076;SDS011;25777;47.824;18.982;2023-08-06T12:02:45;1.02;;;0.32;;
40076;SDS011;25777;47.824;18.982;2023-08-06T12:05:20;0.50;;;0.30;;
40076;SDS011;25777;47.824;18.982;2023-08-06T12:15:34;0.22;;;0.20;;
40076;SDS011;25777;47.824;18.982;2023-08-06T12:18:01;1.52;;;0.40;;
40076;SDS011;25777;47.824;18.982;2023-08-06T12:20:27;1.25;;;0.40;;
40076;SDS011;25777;47.824;18.982;2023-08-06T12:22:54;0.80;;;0.40;;
40076;SDS011;25777;47.824;18.982;2023-08-06T12:25:20;0.60;;;0.38;;
40076;SDS011;25777;47.824;18.982;2023-08-06T12:27:46;6.10;;;0.30;;
40076;SDS011;25777;47.824;18.982;2023-08-06T12:30:25;0.82;;;0.40;;
40076;SDS011;25777;47.824;18.982;2023-08-06T12:32:51;0.77;;;0.40;;
40076;SDS011;25777;47.824;18.982;2023-08-06T12:35:17;0.88;;;0.50;;
40076;SDS011;25777;47.824;18.982;2023-08-06T12:37:45;2.25;;;0.50;;
40076;SDS011;25777;47.824;18.982;2023-08-06T12:40:19;0.40;;;0.40;;
40076;SDS011;25777;47.824;18.982;2023-08-06T12:42:45;0.60;;;0.50;;
40076;SDS011;25777;47.824;18.982;2023-08-06T12:45:11;0.40;;;0.30;;
40076;SDS011;25777;47.824;18.982;2023-08-06T12:47:37;1.27;;;0.52;;
40076;SDS011;25777;47.824;18.982;2023-08-06T12:55:08;1.30;;;0.70;;
40076;SDS011;25777;47.824;18.982;2023-08-06T12:57:34;0.65;;;0.57;;
40076;SDS011;25777;47.824;18.982;2023-08-06T13:00:00;1.48;;;0.70;;
40076;SDS011;25777;47.824;18.982;2023-08-06T13:02:26;1.00;;;0.65;;
40076;SDS011;25777;47.824;18.982;2023-08-06T13:04:55;0.65;;;0.55;;
40076;SDS011;25777;47.824;18.982;2023-08-06T13:07:23;1.42;;;0.70;;
40076;SDS011;25777;47.824;18.982;2023-08-06T13:09:50;0.47;;;0.45;;
40076;SDS011;25777;47.824;18.982;2023-08-06T13:12:16;0.98;;;0.57;;
40076;SDS011;25777;47.824;18.982;2023-08-06T13:14:45;1.10;;;0.80;;
40076;SDS011;25777;47.824;18.982;2023-08-06T13:20:13;0.80;;;0.70;;
40076;SDS011;25777;47.824;18.982;2023-08-06T13:22:44;1.27;;;1.00;;
40076;SDS011;25777;47.824;18.982;2023-08-06T13:25:11;1.20;;;0.70;;
40076;SDS011;25777;47.824;18.982;2023-08-06T13:27:40;2.50;;;0.98;;
40076;SDS011;25777;47.824;18.982;2023-08-06T13:30:06;1.48;;;1.00;;
40076;SDS011;25777;47.824;18.982;2023-08-06T13:32:35;1.23;;;0.90;;
40076;SDS011;25777;47.824;18.982;2023-08-06T13:35:02;1.42;;;0.70;;
40076;SDS011;25777;47.824;18.982;2023-08-06T13:37:32;1.67;;;1.08;;
40076;SDS011;25777;47.824;18.982;2023-08-06T13:40:01;1.80;;;0.88;;
40076;SDS011;25777;47.824;18.982;2023-08-06T13:42:27;1.67;;;0.77;;
40076;SDS011;25777;47.824;18.982;2023-08-06T13:45:01;1.50;;;0.98;;
40076;SDS011;25777;47.824;18.982;2023-08-06T13:47:29;1.30;;;0.93;;
40076;SDS011;25777;47.824;18.982;2023-08-06T13:52:25;1.08;;;0.98;;
40076;SDS011;25777;47.824;18.982;2023-08-06T13:54:59;1.08;;;0.90;;
40076;SDS011;25777;47.824;18.982;2023-08-06T13:57:25;1.25;;;1.05;;
40076;SDS011;25777;47.824;18.982;2023-08-06T13:59:50;1.88;;;0.85;;
40076;SDS011;25777;47.824;18.982;2023-08-06T14:02:18;1.83;;;1.08;;
40076;SDS011;25777;47.824;18.982;2023-08-06T14:04:44;1.80;;;0.93;;
40076;SDS011;25777;47.824;18.982;2023-08-06T14:07:10;1.77;;;1.10;;
40076;SDS011;25777;47.824;18.982;2023-08-06T14:09:37;1.23;;;1.13;;
40076;SDS011;25777;47.824;18.982;2023-08-06T14:12:04;3.20;;;1.10;;
40076;SDS011;25777;47.824;18.982;2023-08-06T14:17:02;3.85;;;1.63;;
40076;SDS011;25777;47.824;18.982;2023-08-06T14:22:19;2.92;;;2.00;;
40076;SDS011;25777;47.824;18.982;2023-08-06T14:24:45;2.70;;;2.10;;
40076;SDS011;25777;47.824;18.982;2023-08-06T14:27:12;2.42;;;1.83;;
40076;SDS011;25777;47.824;18.982;2023-08-06T14:29:40;2.80;;;1.98;;
40076;SDS011;25777;47.824;18.982;2023-08-06T14:32:06;3.22;;;2.40;;
40076;SDS011;25777;47.824;18.982;2023-08-06T14:34:33;8.20;;;2.70;;
40076;SDS011;25777;47.824;18.982;2023-08-06T14:37:00;4.75;;;2.38;;
40076;SDS011;25777;47.824;18.982;2023-08-06T14:39:27;4.25;;;2.28;;
40076;SDS011;25777;47.824;18.982;2023-08-06T14:41:53;2.92;;;2.00;;
40076;SDS011;25777;47.824;18.982;2023-08-06T14:44:19;4.70;;;2.28;;
40076;SDS011;25777;47.824;18.982;2023-08-06T14:46:44;3.70;;;2.38;;
40076;SDS011;25777;47.824;18.982;2023-08-06T14:49:10;2.92;;;2.30;;
40076;SDS011;25777;47.824;18.982;2023-08-06T14:51:38;5.82;;;2.20;;
40076;SDS011;25777;47.824;18.982;2023-08-06T14:54:04;2.75;;;1.70;;
40076;SDS011;25777;47.824;18.982;2023-08-06T14:56:31;3.10;;;2.22;;
40076;SDS011;25777;47.824;18.982;2023-08-06T14:58:57;2.72;;;2.05;;
40076;SDS011;25777;47.824;18.982;2023-08-06T15:01:23;2.30;;;1.92;;
40076;SDS011;25777;47.824;18.982;2023-08-06T15:03:49;4.28;;;2.15;;
40076;SDS011;25777;47.824;18.982;2023-08-06T15:06:15;2.90;;;2.00;;
40076;SDS011;25777;47.824;18.982;2023-08-06T15:08:42;2.55;;;2.08;;
40076;SDS011;25777;47.824;18.982;2023-08-06T15:11:12;4.82;;;3.60;;
40076;SDS011;25777;47.824;18.982;2023-08-06T15:13:39;3.58;;;2.50;;
40076;SDS011;25777;47.824;18.982;2023-08-06T15:16:05;4.20;;;2.35;;
40076;SDS011;25777;47.824;18.982;2023-08-06T15:18:32;3.00;;;2.30;;
40076;SDS011;25777;47.824;18.982;2023-08-06T15:20:59;3.45;;;2.40;;
40076;SDS011;25777;47.824;18.982;2023-08-06T15:23:26;3.70;;;2.55;;
40076;SDS011;25777;47.824;18.982;2023-08-06T15:25:53;3.30;;;2.28;;
40076;SDS011;25777;47.824;18.982;2023-08-06T15:28:20;3.05;;;2.40;;
40076;SDS011;25777;47.824;18.982;2023-08-06T15:30:49;3.88;;;2.40;;
40076;SDS011;25777;47.824;18.982;2023-08-06T15:33:17;3.33;;;2.00;;
40076;SDS011;25777;47.824;18.982;2023-08-06T15:35:43;3.60;;;2.35;;
40076;SDS011;25777;47.824;18.982;2023-08-06T15:38:09;2.58;;;2.10;;
40076;SDS011;25777;47.824;18.982;2023-08-06T15:40:35;2.42;;;2.00;;
40076;SDS011;25777;47.824;18.982;2023-08-06T15:43:02;4.30;;;2.40;;
40076;SDS011;25777;47.824;18.982;2023-08-06T15:45:30;4.82;;;2.33;;
40076;SDS011;25777;47.824;18.982;2023-08-06T15:47:55;3.13;;;2.30;;
40076;SDS011;25777;47.824;18.982;2023-08-06T15:50:22;3.00;;;2.28;;
40076;SDS011;25777;47.824;18.982;2023-08-06T15:52:51;3.92;;;2.92;;
40076;SDS011;25777;47.824;18.982;2023-08-06T15:55:23;4.22;;;2.83;;
40076;SDS011;25777;47.824;18.982;2023-08-06T15:57:49;5.07;;;2.20;;
40076;SDS011;25777;47.824;18.982;2023-08-06T16:00:15;3.38;;;2.10;;
40076;SDS011;25777;47.824;18.982;2023-08-06T16:02:41;3.33;;;2.40;;
40076;SDS011;25777;47.824;18.982;2023-08-06T16:05:07;3.20;;;2.20;;
40076;SDS011;25777;47.824;18.982;2023-08-06T16:07:33;3.78;;;2.95;;
40076;SDS011;25777;47.824;18.982;2023-08-06T16:10:01;7.45;;;3.50;;
40076;SDS011;25777;47.824;18.982;2023-08-06T16:14:56;7.05;;;4.05;;
40076;SDS011;25777;47.824;18.982;2023-08-06T16:17:23;5.00;;;2.50;;
40076;SDS011;25777;47.824;18.982;2023-08-06T16:19:49;4.47;;;2.85;;
40076;SDS011;25777;47.824;18.982;2023-08-06T16:22:19;3.53;;;2.65;;
40076;SDS011;25777;47.824;18.982;2023-08-06T16:24:46;2.75;;;2.35;;
40076;SDS011;25777;47.824;18.982;2023-08-06T16:27:20;5.93;;;3.95;;
40076;SDS011;25777;47.824;18.982;2023-08-06T16:34:46;4.88;;;2.97;;
40076;SDS011;25777;47.824;18.982;2023-08-06T16:37:19;5.35;;;3.92;;
40076;SDS011;25777;47.824;18.982;2023-08-06T16:39:48;8.68;;;6.05;;
40076;SDS011;25777;47.824;18.982;2023-08-06T16:42:14;5.68;;;4.03;;
40076;SDS011;25777;47.824;18.982;2023-08-06T16:44:40;4.35;;;2.88;;
40076;SDS011;25777;47.824;18.982;2023-08-06T16:47:06;3.25;;;2.33;;
40076;SDS011;25777;47.824;18.982;2023-08-06T16:49:32;2.63;;;2.03;;
40076;SDS011;25777;47.824;18.982;2023-08-06T16:51:58;5.45;;;3.15;;
40076;SDS011;25777;47.824;18.982;2023-08-06T16:54:24;4.65;;;3.50;;
40076;SDS011;25777;47.824;18.982;2023-08-06T16:56:51;5.55;;;3.75;;
40076;SDS011;25777;47.824;18.982;2023-08-06T16:59:18;5.57;;;3.92;;
40076;SDS011;25777;47.824;18.982;2023-08-06T17:01:46;8.43;;;5.70;;
40076;SDS011;25777;47.824;18.982;2023-08-06T17:04:11;2.63;;;1.92;;
40076;SDS011;25777;47.824;18.982;2023-08-06T17:06:38;5.20;;;3.38;;